createdAt,value
2018-11-13T00:03:56.357Z,2.57
2018-11-13T00:09:00.553Z,2.63
2018-11-13T00:14:04.243Z,3.23
2018-11-13T00:19:07.995Z,3.53
2018-11-13T00:24:11.456Z,3.00
2018-11-13T00:29:14.928Z,2.73
2018-11-13T00:34:19.675Z,2.90
2018-11-13T00:39:23.495Z,3.00
2018-11-13T00:44:28.081Z,3.00
2018-11-13T00:49:31.579Z,3.50
2018-11-13T00:54:35.223Z,3.50
2018-11-13T00:59:38.839Z,3.80
2018-11-13T01:04:42.389Z,3.87
2018-11-13T01:09:45.945Z,3.13
2018-11-13T01:14:49.544Z,3.60
2018-11-13T01:19:53.041Z,3.17
2018-11-13T01:24:58.362Z,3.30
2018-11-13T01:30:02.117Z,2.53
2018-11-13T01:35:06.867Z,3.90
2018-11-13T01:40:12.641Z,3.30
2018-11-13T01:45:17.074Z,3.33
2018-11-13T01:50:20.640Z,3.13
2018-11-13T01:55:24.238Z,3.10
2018-11-13T02:00:28.280Z,3.77
2018-11-13T02:05:31.780Z,3.20
2018-11-13T02:10:35.354Z,2.98
2018-11-13T02:15:39.043Z,3.03
2018-11-13T02:20:42.548Z,2.83
2018-11-13T02:25:46.140Z,2.57
2018-11-13T02:30:49.839Z,2.60
2018-11-13T02:35:53.443Z,2.70
2018-11-13T02:40:57.243Z,2.60
2018-11-13T02:46:00.948Z,2.50
2018-11-13T02:51:04.598Z,2.55
2018-11-13T02:56:08.650Z,2.50
2018-11-13T03:01:12.133Z,2.50
2018-11-13T03:06:15.644Z,2.30
2018-11-13T03:11:19.179Z,2.20
2018-11-13T03:16:22.709Z,2.20
2018-11-13T03:21:26.335Z,2.77
2018-11-13T03:26:30.119Z,2.53
2018-11-13T03:31:34.483Z,2.60
2018-11-13T03:36:38.214Z,3.10
2018-11-13T03:41:41.954Z,2.57
2018-11-13T03:46:45.892Z,2.73
2018-11-13T03:51:49.437Z,2.57
2018-11-13T03:56:52.951Z,3.23
2018-11-13T04:01:56.586Z,2.77
2018-11-13T04:07:00.361Z,3.87
2018-11-13T04:12:03.949Z,3.70
2018-11-13T04:17:07.453Z,2.93
2018-11-13T04:22:10.979Z,3.57
2018-11-13T04:27:14.614Z,4.00
2018-11-13T04:32:18.249Z,3.63
2018-11-13T04:37:22.929Z,4.00
2018-11-13T04:42:26.823Z,3.83
2018-11-13T04:47:31.065Z,3.25
2018-11-13T04:52:34.537Z,2.63
2018-11-13T04:57:38.132Z,3.00
2018-11-13T05:02:42.833Z,3.05
2018-11-13T05:07:47.604Z,3.03
2018-11-13T05:12:51.371Z,3.17
2018-11-13T05:17:55.153Z,2.60
2018-11-13T05:22:59.285Z,2.73
2018-11-13T05:28:02.943Z,2.00
2018-11-13T05:33:06.408Z,2.33
2018-11-13T05:38:09.986Z,2.50
2018-11-13T05:43:14.803Z,2.83
2018-11-13T05:48:19.945Z,2.60
2018-11-13T05:53:25.795Z,2.70
2018-11-13T05:58:29.705Z,3.40
2018-11-13T06:03:33.500Z,2.90
2018-11-13T06:08:37.146Z,2.53
2018-11-13T06:13:43.252Z,3.13
2018-11-13T06:18:46.741Z,3.07
2018-11-13T06:23:50.362Z,2.87
2018-11-13T06:28:53.888Z,2.23
2018-11-13T06:33:57.378Z,2.43
2018-11-13T06:39:01.316Z,2.33
2018-11-13T06:44:05.106Z,2.23
2018-11-13T06:49:08.970Z,1.80
2018-11-13T06:54:24.227Z,1.43
2018-11-13T06:59:28.047Z,1.40
2018-11-13T07:04:32.469Z,1.37
2018-11-13T07:09:36.332Z,1.50
2018-11-13T07:14:39.783Z,1.65
2018-11-13T07:19:43.742Z,2.43
2018-11-13T07:24:47.400Z,2.62
2018-11-13T07:29:51.347Z,2.43
2018-11-13T07:34:55.120Z,2.53
2018-11-13T07:39:58.851Z,2.43
2018-11-13T07:45:03.704Z,1.50
2018-11-13T07:50:09.242Z,1.53
2018-11-13T07:55:14.234Z,1.00
2018-11-13T08:00:19.989Z,0.90
2018-11-13T08:05:23.705Z,0.60
2018-11-13T08:10:27.507Z,0.63
2018-11-13T08:15:31.199Z,1.00
2018-11-13T08:20:35.174Z,1.03
2018-11-13T08:25:39.461Z,1.20
2018-11-13T08:30:42.990Z,1.37
2018-11-13T08:35:46.567Z,1.07
2018-11-13T08:40:50.041Z,1.00
2018-11-13T08:45:53.621Z,0.90
2018-11-13T08:50:57.289Z,0.90
2018-11-13T08:56:00.758Z,0.60
2018-11-13T09:01:04.673Z,0.50
2018-11-13T09:06:08.928Z,0.60
2018-11-13T09:11:12.555Z,0.57
2018-11-13T09:16:16.524Z,0.50
2018-11-13T09:21:20.693Z,0.60
2018-11-13T09:26:24.179Z,0.67
2018-11-13T09:31:27.912Z,0.53
2018-11-13T09:36:31.569Z,0.53
2018-11-13T09:41:35.692Z,1.23
2018-11-13T09:46:39.390Z,0.80
2018-11-13T09:51:43.209Z,1.10
2018-11-13T09:56:47.616Z,0.50
2018-11-13T10:01:51.470Z,0.40
2018-11-13T10:06:54.946Z,0.50
2018-11-13T10:11:59.077Z,0.50
2018-11-13T10:17:04.328Z,0.50
2018-11-13T10:22:08.416Z,0.40
2018-11-13T10:27:12.738Z,0.40
2018-11-13T10:32:16.233Z,0.50
2018-11-13T10:37:19.774Z,0.50
2018-11-13T10:42:23.221Z,0.50
2018-11-13T10:47:26.982Z,0.63
2018-11-13T10:52:30.567Z,0.40
2018-11-13T11:05:17.466Z,0.40
2018-11-13T11:10:21.487Z,0.70
2018-11-13T11:15:24.982Z,0.40
2018-11-13T11:20:28.477Z,0.40
2018-11-13T11:25:32.137Z,0.33
2018-11-13T11:30:35.648Z,0.50
2018-11-13T11:35:39.237Z,0.40
2018-11-13T11:40:42.730Z,0.50
2018-11-13T11:45:46.219Z,0.40
2018-11-13T11:50:49.717Z,0.43
2018-11-13T11:55:53.296Z,0.40
2018-11-13T12:00:56.921Z,0.40
2018-11-13T12:06:00.685Z,0.40
2018-11-13T12:11:04.593Z,0.30
2018-11-13T12:16:08.254Z,0.43
2018-11-13T12:21:12.419Z,0.40
2018-11-13T12:26:16.098Z,0.33
2018-11-13T12:31:20.008Z,0.40
2018-11-13T12:36:23.530Z,0.60
2018-11-13T12:41:27.091Z,0.47
2018-11-13T12:46:30.706Z,0.50
2018-11-13T12:51:36.495Z,0.40
2018-11-13T12:56:41.836Z,0.40
2018-11-13T13:01:45.619Z,0.40
2018-11-13T13:06:49.083Z,0.30
2018-11-13T13:11:52.856Z,0.40
2018-11-13T13:16:56.292Z,0.50
2018-11-13T13:22:00.091Z,0.30
2018-11-13T13:27:04.134Z,0.40
2018-11-13T13:32:07.913Z,0.37
2018-11-13T13:37:12.605Z,0.30
2018-11-13T13:42:16.205Z,0.40
2018-11-13T13:47:19.840Z,0.40
2018-11-13T13:52:23.303Z,0.33
2018-11-13T13:57:26.850Z,0.40
2018-11-13T14:02:30.936Z,0.30
2018-11-13T14:07:34.935Z,0.40
2018-11-13T14:12:38.946Z,0.43
2018-11-13T14:17:43.245Z,0.40
2018-11-13T14:22:46.934Z,0.40
2018-11-13T14:27:50.442Z,0.30
2018-11-13T14:32:54.903Z,0.30
2018-11-13T14:37:58.462Z,0.40
2018-11-13T14:43:02.613Z,0.40
2018-11-13T14:48:06.883Z,0.40
2018-11-13T14:53:10.894Z,0.40
2018-11-13T14:58:16.766Z,0.40
2018-11-13T15:03:20.534Z,0.40
2018-11-13T15:08:24.006Z,0.42
2018-11-13T15:13:30.226Z,0.40
2018-11-13T15:18:34.349Z,0.50
2018-11-13T15:23:38.167Z,0.50
2018-11-13T15:28:41.825Z,0.40
2018-11-13T15:33:45.301Z,0.50
2018-11-13T15:38:48.851Z,0.53
2018-11-13T15:43:52.327Z,0.40
2018-11-13T15:48:55.859Z,0.50
2018-11-13T15:54:00.173Z,0.60
2018-11-13T15:59:04.296Z,0.50
2018-11-13T16:04:08.388Z,0.40
2018-11-13T16:09:12.186Z,0.40
2018-11-13T16:14:16.760Z,0.60
2018-11-13T16:19:20.614Z,0.60
2018-11-13T16:24:24.201Z,0.50
2018-11-13T16:29:27.754Z,0.40
2018-11-13T16:34:31.239Z,0.40
2018-11-13T16:39:34.884Z,0.53
2018-11-13T16:44:39.267Z,0.60
2018-11-13T16:49:43.032Z,0.60
2018-11-13T16:54:49.608Z,0.50
2018-11-13T16:59:52.407Z,0.60
2018-11-13T17:04:55.987Z,0.43
2018-11-13T17:09:59.627Z,0.40
2018-11-13T17:15:03.553Z,0.60
2018-11-13T17:20:09.351Z,0.57
2018-11-13T17:25:15.299Z,0.90
2018-11-13T17:30:23.696Z,1.07
2018-11-13T17:35:28.253Z,1.90
2018-11-13T17:40:33.331Z,1.90
2018-11-13T17:45:41.168Z,2.03
2018-11-13T17:50:45.207Z,2.20
2018-11-13T17:55:48.890Z,1.85
2018-11-13T18:00:53.231Z,1.90
2018-11-13T18:05:57.358Z,2.50
2018-11-13T18:11:02.544Z,2.43
2018-11-13T18:16:07.970Z,2.60
2018-11-13T18:21:12.674Z,2.50
2018-11-13T18:26:16.572Z,2.47
2018-11-13T18:31:21.183Z,2.30
2018-11-13T18:36:25.463Z,2.47
2018-11-13T18:41:28.932Z,2.30
2018-11-13T18:46:32.487Z,2.50
2018-11-13T18:51:36.204Z,2.27
2018-11-13T18:56:39.839Z,1.90
2018-11-13T19:01:43.582Z,2.30
2018-11-13T19:06:48.045Z,2.30
2018-11-13T19:11:52.586Z,2.41
2018-11-13T19:16:59.092Z,2.37
2018-11-13T19:22:05.036Z,2.10
2018-11-13T19:27:08.862Z,2.20
2018-11-13T19:32:13.963Z,2.00
2018-11-13T19:37:20.325Z,2.27
2018-11-13T19:42:24.983Z,2.10
2018-11-13T19:47:29.064Z,2.62
2018-11-13T19:52:33.246Z,3.73
2018-11-13T19:57:37.349Z,2.77
2018-11-13T20:02:41.480Z,2.40
2018-11-13T20:07:48.065Z,2.87
2018-11-13T20:12:54.160Z,3.33
